Pozuelo de Alarcon, Spain
Current Conditions -  °F | °C
As of 10:30 AM on Friday 28 Nov 2014 (Local Time) from LEVS Reporting Station
Moderate Rain Moderate Rain  
Wind Chill: 42°   Ceiling: 4000
Heat Index: 46°   Visibility: 6mi
Dew Point: 46°   Wind: 9mph
Humidity: 100%   Direction: 110°ESE
Pressure: 29.09"   Gusts: NA
Location:  40.44°N, 3.81°W
Report Text: LEVS 280930Z 11008KT 070V140 9999 RA SCT025 OVC040 08/08 Q0985
Loading
Personal Weather Stations






























Interactive Weather Map New forecast layout! Learn more

10-Day Weather Forecast

Advertisements
Track Severe Weather on mobile